Time;durP1;ratioP1;P1;durP2;ratioP2;P2;SDS_P1;SDS_P2;PMS_P1;PMS_P2;Temp;Humidity;BMP_temperature;BMP_pressure;BME280_temperature;BME280_humidity;BME280_pressure;Samples;Min_cycle;Max_cycle;Signal;HPM_P1;HPM_P2
2022/03/23 00:02:16;;;;;;;;;51.67;43.33;;;;;15.22;38.79;102026.28;6249710;22;45482;-82
2022/03/23 00:04:41;;;;;;;;;52.33;43.33;;;;;15.20;38.78;102025.38;6220104;22;47852;-82
2022/03/23 00:07:07;;;;;;;;;49.33;41.33;;;;;15.15;38.79;102016.38;6248257;22;45757;-82
2022/03/23 00:09:32;;;;;;;;;54.33;43.00;;;;;15.16;38.71;102026.19;6248700;22;45501;-82
2022/03/23 00:11:59;;;;;;;;;51.33;40.00;;;;;15.27;38.61;102029.97;6221824;22;45505;-82
2022/03/23 00:14:24;;;;;;;;;52.00;41.00;;;;;15.11;38.67;102025.25;6249567;22;45709;-81
2022/03/23 00:16:50;;;;;;;;;49.67;41.33;;;;;15.14;38.92;102036.00;6249768;22;45357;-81
2022/03/23 00:19:17;;;;;;;;;43.67;36.33;;;;;15.00;38.91;102012.53;6222237;22;45676;-82
2022/03/23 00:21:42;;;;;;;;;45.67;38.00;;;;;15.06;38.87;102035.88;6221868;22;45386;-81
2022/03/23 00:24:14;;;;;;;;;50.75;42.25;;;;;15.26;39.06;102046.00;6275298;22;45328;-82
2022/03/23 00:26:39;;;;;;;;;49.67;40.33;;;;;15.09;38.99;102043.03;6281550;22;45480;-82
2022/03/23 00:29:05;;;;;;;;;58.33;46.33;;;;;15.05;38.88;102035.81;6254031;22;45927;-81
2022/03/23 00:31:30;;;;;;;;;52.33;41.33;;;;;15.06;39.14;102043.00;6280186;22;45436;-81
2022/03/23 00:34:43;;;;;;;;;51.00;40.00;;;;;15.22;38.69;102044.16;6280930;22;45857;-82
2022/03/23 00:37:09;;;;;;;;;49.00;40.33;;;;;14.98;38.78;102041.09;6253020;22;45318;-81
2022/03/23 00:39:35;;;;;;;;;51.00;41.00;;;;;14.90;38.97;102036.50;6279960;22;45461;-81
2022/03/23 00:42:00;;;;;;;;;50.67;40.33;;;;;14.87;39.11;102032.00;6252690;22;45610;-82
2022/03/23 00:44:25;;;;;;;;;53.00;40.33;;;;;14.93;38.91;102034.78;6252242;22;46483;-81
2022/03/23 00:46:52;;;;;;;;;44.33;38.67;;;;;15.00;39.10;102041.13;6281371;22;45321;-81
2022/03/23 00:49:18;;;;;;;;;45.00;38.67;;;;;14.81;38.89;102031.88;6280934;22;45276;-82
2022/03/23 00:51:43;;;;;;;;;47.00;40.00;;;;;14.87;38.92;102039.13;6253189;22;45445;-81
2022/03/23 00:54:09;;;;;;;;;47.00;40.00;;;;;14.83;38.72;102038.16;6252152;22;47173;-81
2022/03/23 00:56:37;;;;;;;;;51.67;40.33;;;;;14.83;38.87;102042.63;6252202;22;45306;-82
2022/03/23 00:59:03;;;;;;;;;41.00;36.33;;;;;14.80;38.77;102044.38;6252892;22;45388;-82
2022/03/23 01:01:29;;;;;;;;;47.33;40.00;;;;;14.76;39.04;102038.91;6252849;22;45358;-82
2022/03/23 01:03:55;;;;;;;;;42.00;33.33;;;;;14.67;38.79;102028.97;6251618;22;46996;-82
2022/03/23 01:06:20;;;;;;;;;47.67;39.67;;;;;14.65;38.95;102029.81;6279788;22;45371;-82
2022/03/23 01:12:09;;;;;;;;;46.00;38.33;;;;;14.71;38.84;102046.00;6279697;22;45369;-82
2022/03/23 01:14:34;;;;;;;;;36.00;27.00;;;;;14.65;39.21;102036.06;6281520;22;46122;-82
2022/03/23 01:17:00;;;;;;;;;49.33;39.67;;;;;14.58;39.46;102031.47;6281983;22;45311;-82
2022/03/23 01:19:27;;;;;;;;;47.67;38.33;;;;;14.57;39.17;102037.69;6282599;22;45938;-82
2022/03/23 01:25:41;;;;;;;;;44.33;38.67;;;;;14.70;39.05;102031.69;6252798;22;45368;-81
2022/03/23 01:28:08;;;;;;;;;40.00;34.33;;;;;14.46;39.42;102033.88;6223948;22;45422;-82
2022/03/23 01:30:33;;;;;;;;;46.67;38.67;;;;;14.45;39.68;102035.66;6223109;22;45436;-81
2022/03/23 01:32:59;;;;;;;;;43.00;36.00;;;;;14.43;39.45;102029.38;6250001;22;45378;-81
2022/03/23 01:35:26;;;;;;;;;45.00;40.00;;;;;14.48;39.60;102026.78;6247730;22;47663;-82
2022/03/23 01:37:51;;;;;;;;;45.00;37.67;;;;;14.31;39.37;102034.50;6248953;22;45273;-81
2022/03/23 01:40:17;;;;;;;;;46.00;37.33;;;;;14.35;39.40;102023.88;6250216;22;45752;-81
2022/03/23 01:42:43;;;;;;;;;43.67;37.33;;;;;14.30;39.26;102032.69;6223475;22;45356;-81
2022/03/23 01:45:10;;;;;;;;;47.33;36.00;;;;;14.34;39.19;102034.53;6222283;22;45315;-81
2022/03/23 01:47:37;;;;;;;;;50.00;39.33;;;;;14.25;38.88;102037.06;6222718;22;45411;-81
2022/03/23 01:50:05;;;;;;;;;43.33;38.33;;;;;14.30;39.00;102028.25;6222363;22;45430;-81
2022/03/23 01:52:32;;;;;;;;;37.33;35.00;;;;;14.19;38.85;102030.69;6250879;22;45395;-81
2022/03/23 01:55:00;;;;;;;;;42.33;36.67;;;;;14.15;38.71;102028.81;6222759;22;45685;-81
2022/03/23 01:57:26;;;;;;;;;31.33;31.33;;;;;14.08;38.36;102024.25;6250724;22;45403;-81
2022/03/23 01:59:51;;;;;;;;;39.33;36.67;;;;;14.05;38.66;102021.50;6249908;22;45452;-80
2022/03/23 02:02:17;;;;;;;;;37.67;34.00;;;;;14.06;38.78;102022.38;6250608;22;45848;-80
2022/03/23 02:04:42;;;;;;;;;42.00;38.00;;;;;14.03;38.50;102020.56;6222527;22;46569;-82
2022/03/23 02:07:10;;;;;;;;;42.00;36.33;;;;;14.10;38.30;102022.50;6249848;22;45326;-81
2022/03/23 02:09:35;;;;;;;;;44.00;37.33;;;;;13.99;38.47;102024.03;6250008;22;45668;-81
2022/03/23 02:12:02;;;;;;;;;42.33;36.33;;;;;13.97;38.71;102018.66;6250886;22;45321;-81
2022/03/23 02:14:28;;;;;;;;;41.00;36.67;;;;;13.93;38.63;102015.91;6223507;22;46813;-81
2022/03/23 02:16:53;;;;;;;;;31.67;31.00;;;;;13.88;38.71;102017.59;6223448;22;45663;-81
2022/03/23 02:19:23;;;;;;;;;45.33;38.67;;;;;13.96;38.63;102026.66;6251416;22;45357;-81
2022/03/23 02:21:49;;;;;;;;;46.00;35.33;;;;;13.86;38.46;102022.00;6223553;22;45351;-81
2022/03/23 02:25:00;;;;;;;;;47.00;38.00;;;;;14.05;38.27;102025.94;6233796;22;47889;-81
2022/03/23 02:27:26;;;;;;;;;42.67;35.67;;;;;13.83;38.32;102029.94;6221284;22;45312;-80
2022/03/23 02:29:53;;;;;;;;;46.33;37.00;;;;;13.77;38.64;102026.25;6250657;22;45386;-80
2022/03/23 02:32:19;;;;;;;;;35.00;34.33;;;;;13.77;38.29;102020.00;6249652;22;45461;-81
2022/03/23 02:34:44;;;;;;;;;39.67;34.67;;;;;13.71;38.86;102020.78;6223090;22;46838;-81
2022/03/23 02:37:11;;;;;;;;;37.33;35.00;;;;;13.80;38.73;102020.09;6249189;22;45464;-81
2022/03/23 02:39:36;;;;;;;;;42.00;36.67;;;;;13.65;38.79;102019.75;6249783;22;45374;-82
2022/03/23 02:42:02;;;;;;;;;47.50;39.00;;;;;13.60;38.72;102022.34;6222123;22;44769;-81
2022/03/23 02:44:29;;;;;;;;;41.33;34.33;;;;;13.62;38.83;102031.28;6222160;22;46674;-81
2022/03/23 02:46:55;;;;;;;;;51.00;37.33;;;;;13.54;38.93;102022.19;6221624;22;45396;-81
2022/03/23 03:01:52;;;;;;;;;45.67;37.00;;;;;13.49;39.31;102040.81;6250263;22;45706;-81
2022/03/23 03:04:17;;;;;;;;;40.00;35.00;;;;;13.29;39.32;102042.06;6190884;23;45423;-79
2022/03/23 03:06:43;;;;;;;;;42.67;35.33;;;;;13.24;39.15;102038.38;6190632;23;46220;-82
2022/03/23 03:09:08;;;;;;;;;47.00;41.00;;;;;13.19;39.46;102040.97;6164232;23;46129;-82
2022/03/23 03:11:34;;;;;;;;;40.33;34.33;;;;;13.20;38.99;102042.75;6186749;23;45374;-82
2022/03/23 03:14:00;;;;;;;;;38.00;35.67;;;;;13.19;39.29;102052.53;6186365;23;45409;-82
2022/03/23 03:16:26;;;;;;;;;35.33;32.00;;;;;13.17;39.28;102048.03;6161113;23;48174;-82
2022/03/23 03:18:53;;;;;;;;;41.67;35.67;;;;;13.26;39.15;102055.34;6186751;23;45435;-82
2022/03/23 03:21:19;;;;;;;;;45.67;35.33;;;;;13.08;39.20;102037.09;6161836;23;45680;-82
2022/03/23 03:23:46;;;;;;;;;39.00;35.67;;;;;13.11;39.30;102037.16;6162416;23;45371;-81
2022/03/23 03:26:12;;;;;;;;;36.00;32.33;;;;;13.16;39.19;102052.44;6177725;22;46775;-82
2022/03/23 03:28:39;;;;;;;;;51.00;37.67;;;;;13.09;38.99;102047.84;6191179;22;45031;-82
2022/03/23 03:31:08;;;;;;;;;33.00;28.00;;;;;13.20;39.11;102061.44;6191715;22;45776;-82
2022/03/23 03:33:34;;;;;;;;;33.33;30.67;;;;;13.07;39.08;102057.59;6217249;22;45361;-82
2022/03/23 03:36:00;;;;;;;;;39.00;34.67;;;;;13.01;39.05;102063.66;6216202;22;46714;-82
2022/03/23 03:38:30;;;;;;;;;44.33;36.33;;;;;13.07;39.01;102062.94;6252178;22;45408;-82
2022/03/23 03:40:56;;;;;;;;;35.67;32.33;;;;;12.97;38.99;102072.47;6252284;22;45744;-82
2022/03/23 03:43:23;;;;;;;;;34.33;31.67;;;;;12.93;39.21;102075.91;6223591;22;45370;-82
2022/03/23 03:45:48;;;;;;;;;39.00;34.67;;;;;12.87;39.03;102070.44;6250685;22;45482;-82
2022/03/23 03:48:14;;;;;;;;;33.67;32.33;;;;;12.86;39.12;102076.59;6250288;22;45340;-82
2022/03/23 03:50:40;;;;;;;;;36.67;33.00;;;;;12.87;39.00;102075.75;6223415;22;45676;-82
2022/03/23 03:53:09;;;;;;;;;28.67;28.67;;;;;12.90;39.17;102081.16;6252037;22;45909;-82
2022/03/23 03:55:39;;;;;;;;;34.33;32.33;;;;;12.96;39.18;102086.66;6251939;22;45831;-82
2022/03/23 03:58:05;;;;;;;;;36.00;32.00;;;;;12.88;39.31;102084.66;6249933;22;45353;-82
2022/03/23 04:00:33;;;;;;;;;34.67;32.67;;;;;12.80;39.09;102085.38;6224730;22;45543;-82
2022/03/23 04:02:59;;;;;;;;;35.33;33.67;;;;;12.69;38.91;102075.28;6225713;22;45306;-82
2022/03/23 04:05:25;;;;;;;;;31.00;31.00;;;;;12.68;39.41;102084.13;6226174;22;47064;-82
2022/03/23 04:07:50;;;;;;;;;34.67;33.67;;;;;12.77;39.09;102090.63;6226427;22;45406;-82
2022/03/23 04:10:16;;;;;;;;;34.33;29.33;;;;;12.72;39.04;102096.69;6254341;22;45448;-82
2022/03/23 04:12:41;;;;;;;;;33.33;30.33;;;;;12.68;39.27;102086.81;6226632;22;45376;-82
2022/03/23 04:15:07;;;;;;;;;31.67;26.33;;;;;12.63;39.41;102093.81;6252230;22;45331;-82
2022/03/23 04:17:34;;;;;;;;;32.00;28.67;;;;;12.64;39.33;102090.25;6224390;22;45684;-82
2022/03/23 04:20:00;;;;;;;;;32.33;32.33;;;;;12.54;39.36;102098.03;6251406;22;45338;-82
2022/03/23 04:22:25;;;;;;;;;30.00;29.00;;;;;12.55;39.28;102105.16;6251603;22;45349;-82
2022/03/23 04:24:51;;;;;;;;;29.00;28.00;;;;;12.50;39.47;102106.81;6225708;22;47316;-82
2022/03/23 04:27:16;;;;;;;;;33.33;29.33;;;;;12.46;39.44;102114.66;6280195;22;45403;-81
2022/03/23 04:29:42;;;;;;;;;34.67;32.67;;;;;12.44;39.51;102105.72;6255536;22;45813;-83
2022/03/23 04:32:09;;;;;;;;;30.33;27.00;;;;;12.43;39.52;102109.25;6281380;22;45821;-82
2022/03/23 04:34:34;;;;;;;;;30.67;29.67;;;;;12.37;39.42;102110.88;6282885;22;45564;-83
2022/03/23 04:37:00;;;;;;;;;31.67;28.33;;;;;12.44;39.44;102111.94;6253960;22;45609;-82
2022/03/23 04:39:26;;;;;;;;;37.00;32.67;;;;;12.35;39.51;102117.94;6282350;22;45274;-82
2022/03/23 04:41:51;;;;;;;;;34.67;32.33;;;;;12.36;39.48;102126.81;6281352;22;45317;-82
2022/03/23 04:44:17;;;;;;;;;36.00;31.67;;;;;12.32;40.00;102116.94;6280327;22;45844;-82
2022/03/23 04:46:42;;;;;;;;;35.67;33.33;;;;;12.29;39.49;102122.19;6253546;22;45384;-81
2022/03/23 04:49:08;;;;;;;;;30.33;29.33;;;;;12.30;39.44;102124.91;6253661;22;45286;-82
2022/03/23 04:51:34;;;;;;;;;32.33;31.33;;;;;12.29;39.23;102130.19;6254074;22;45336;-82
2022/03/23 04:54:02;;;;;;;;;36.33;31.67;;;;;12.25;39.58;102125.63;6281545;22;45379;-82
2022/03/23 04:56:27;;;;;;;;;32.67;27.67;;;;;12.20;39.72;102129.06;6253277;22;45734;-82
2022/03/23 04:58:54;;;;;;;;;26.33;24.33;;;;;12.19;39.58;102135.25;6280963;22;45401;-82
2022/03/23 05:01:20;;;;;;;;;33.00;29.00;;;;;12.14;39.74;102127.97;6254803;22;45463;-82
2022/03/23 05:03:46;;;;;;;;;26.67;26.67;;;;;12.14;39.47;102133.28;6281630;22;45361;-82
2022/03/23 05:06:11;;;;;;;;;26.00;24.00;;;;;12.13;39.62;102132.41;6284398;22;45295;-82
2022/03/23 05:08:37;;;;;;;;;32.33;28.00;;;;;12.11;39.78;102139.44;6284870;22;45626;-81
2022/03/23 05:11:02;;;;;;;;;29.67;26.33;;;;;12.07;39.66;102126.88;6284804;22;45295;-82
2022/03/23 05:13:28;;;;;;;;;30.33;29.00;;;;;12.09;39.43;102133.16;6256764;22;45287;-81
2022/03/23 05:15:53;;;;;;;;;27.33;25.67;;;;;12.05;39.55;102128.59;6256653;22;45409;-81
2022/03/23 05:18:19;;;;;;;;;23.00;22.67;;;;;12.07;39.41;102136.66;6284943;22;45286;-81
2022/03/23 05:20:45;;;;;;;;;26.67;25.00;;;;;12.10;39.18;102137.66;6286070;22;45741;-81
2022/03/23 05:23:13;;;;;;;;;31.67;26.00;;;;;12.09;39.67;102141.16;6258322;22;46700;-81
2022/03/23 05:25:39;;;;;;;;;27.33;27.00;;;;;12.03;39.49;102130.31;6250469;22;45433;-81
2022/03/23 05:28:08;;;;;;;;;30.33;28.00;;;;;12.20;39.24;102137.06;6252495;22;45407;-82
2022/03/23 05:30:34;;;;;;;;;27.33;25.67;;;;;12.07;38.59;102136.66;6226406;22;45332;-80
2022/03/23 05:33:01;;;;;;;;;24.00;22.67;;;;;12.12;39.06;102143.00;6251525;22;47199;-81
2022/03/23 05:35:27;;;;;;;;;27.67;25.67;;;;;12.11;38.84;102143.88;6253997;22;45396;-81
2022/03/23 05:37:52;;;;;;;;;26.33;22.67;;;;;12.11;39.03;102139.44;6256257;22;45455;-80
2022/03/23 05:40:19;;;;;;;;;22.67;22.00;;;;;12.14;38.69;102150.22;6252728;22;45467;-80
2022/03/23 05:42:44;;;;;;;;;25.33;21.33;;;;;12.13;38.69;102142.16;6224086;22;46980;-80
2022/03/23 05:45:10;;;;;;;;;20.00;20.00;;;;;12.19;38.57;102159.25;6251615;22;45677;-79
2022/03/23 05:47:37;;;;;;;;;22.67;22.67;;;;;12.28;38.66;102152.38;6225356;22;45484;-79
2022/03/23 05:50:03;;;;;;;;;19.67;17.67;;;;;12.19;38.56;102159.25;6254012;22;45326;-80
2022/03/23 05:52:30;;;;;;;;;23.67;21.67;;;;;12.24;38.57;102143.41;6253155;22;45670;-79
2022/03/23 05:54:55;;;;;;;;;26.67;23.00;;;;;12.15;38.67;102148.44;6253013;22;45304;-80
2022/03/23 05:57:20;;;;;;;;;19.67;18.67;;;;;12.19;38.68;102159.25;6250186;22;45556;-80
2022/03/23 05:59:47;;;;;;;;;27.33;24.33;;;;;12.14;38.41;102144.88;6251139;22;45451;-80
2022/03/23 06:02:12;;;;;;;;;31.00;29.33;;;;;12.17;38.49;102155.63;6227459;22;46920;-79
2022/03/23 06:04:39;;;;;;;;;24.33;22.33;;;;;12.26;38.75;102148.75;6251581;22;45380;-80
2022/03/23 06:07:04;;;;;;;;;27.00;27.00;;;;;12.17;38.98;102160.97;6253907;22;45385;-79
2022/03/23 06:09:29;;;;;;;;;26.00;22.67;;;;;12.17;38.78;102152.97;6226623;22;45411;-81
2022/03/23 06:11:57;;;;;;;;;27.67;25.67;;;;;12.21;38.90;102154.88;6254506;22;45337;-81
2022/03/23 06:14:22;;;;;;;;;25.00;22.00;;;;;12.17;38.83;102142.28;6251590;22;45271;-81
2022/03/23 06:17:44;;;;;;;;;29.33;26.67;;;;;12.51;38.92;102151.28;6225119;22;45308;-81
2022/03/23 06:20:10;;;;;;;;;30.67;29.33;;;;;12.38;38.93;102150.06;6223715;22;45445;-81
2022/03/23 06:22:36;;;;;;;;;32.67;29.00;;;;;12.41;38.70;102149.22;6223148;22;46700;-81
2022/03/23 06:25:02;;;;;;;;;29.33;27.33;;;;;12.45;38.58;102148.47;6223486;22;45445;-81
2022/03/23 06:27:27;;;;;;;;;25.00;23.00;;;;;12.54;38.24;102155.81;6225887;22;45482;-80
2022/03/23 06:29:54;;;;;;;;;26.33;24.33;;;;;12.60;38.16;102150.66;6254343;22;45400;-81
2022/03/23 06:32:21;;;;;;;;;33.33;26.67;;;;;12.66;38.31;102166.84;6254567;22;45330;-81
2022/03/23 06:34:47;;;;;;;;;25.00;22.33;;;;;12.73;37.88;102178.63;6226271;22;45358;-81
2022/03/23 06:37:13;;;;;;;;;31.00;26.33;;;;;12.73;37.66;102165.25;6252963;22;45518;-81
2022/03/23 06:39:38;;;;;;;;;30.00;25.67;;;;;12.74;37.60;102165.28;6251524;22;45435;-81
2022/03/23 06:42:13;;;;;;;;;23.33;21.67;;;;;13.02;37.71;102174.06;6224177;22;46151;-82
2022/03/23 06:44:39;;;;;;;;;26.67;25.67;;;;;12.86;38.38;102185.19;6249964;22;44872;-82
2022/03/23 06:47:05;;;;;;;;;35.67;27.67;;;;;12.84;38.66;102177.13;6222718;22;45471;-81
2022/03/23 06:49:30;;;;;;;;;25.33;25.33;;;;;12.90;38.67;102185.31;6249112;22;45604;-81
2022/03/23 06:51:56;;;;;;;;;31.67;24.67;;;;;12.91;38.60;102184.47;6222747;22;47114;-80
2022/03/23 06:54:21;;;;;;;;;34.67;30.33;;;;;12.96;38.54;102193.47;6249161;22;45384;-81
2022/03/23 06:56:51;;;;;;;;;26.67;26.33;;;;;12.93;38.41;102185.41;6251009;22;45580;-81
2022/03/23 06:59:17;;;;;;;;;39.00;31.33;;;;;13.06;38.49;102193.75;6225370;22;45340;-80
2022/03/23 07:01:42;;;;;;;;;37.67;35.00;;;;;13.02;38.19;102193.66;6252308;22;46752;-80
2022/03/23 07:04:08;;;;;;;;;41.33;34.67;;;;;13.09;38.07;102188.47;6224330;22;45480;-80
2022/03/23 07:06:34;;;;;;;;;14.67;14.67;;;;;13.31;38.06;102200.66;6252533;22;45444;-80
2022/03/23 07:11:44;;;;;;;;;34.00;27.33;;;;;13.33;37.97;102207.88;6252298;22;45373;-81
2022/03/23 07:14:09;;;;;;;;;34.00;30.00;;;;;13.36;37.91;102210.63;6253187;22;45734;-80
2022/03/23 07:16:35;;;;;;;;;32.33;29.33;;;;;13.47;37.82;102207.31;6251510;22;45452;-81
2022/03/23 07:19:00;;;;;;;;;33.33;33.00;;;;;13.52;37.96;102209.25;6225006;22;45654;-80
2022/03/23 07:21:26;;;;;;;;;34.00;32.00;;;;;13.52;37.81;102213.69;6224983;22;46723;-80
2022/03/23 07:23:51;;;;;;;;;25.67;22.00;;;;;13.56;38.27;102211.13;6226082;22;45569;-81
2022/03/23 07:26:18;;;;;;;;;37.33;34.33;;;;;13.62;38.17;102210.41;6264848;22;45320;-81
2022/03/23 07:28:44;;;;;;;;;35.33;33.67;;;;;13.58;38.08;102213.84;6290189;22;45400;-82
2022/03/23 07:31:09;;;;;;;;;36.00;33.00;;;;;13.71;38.25;102218.63;6260408;22;46919;-83
2022/03/23 07:33:35;;;;;;;;;29.67;29.67;;;;;13.71;38.22;102210.59;6289233;22;44702;-81
2022/03/23 07:36:02;;;;;;;;;38.00;34.00;;;;;13.88;38.31;102227.09;6289960;22;45363;-81
2022/03/23 07:38:28;;;;;;;;;42.00;37.33;;;;;13.94;38.41;102221.88;6288437;22;45864;-82
2022/03/23 07:40:53;;;;;;;;;35.33;35.00;;;;;14.02;38.21;102214.03;6258710;22;45326;-82
2022/03/23 07:43:19;;;;;;;;;42.67;36.33;;;;;14.13;38.41;102219.63;6287297;22;45390;-82
2022/03/23 07:45:46;;;;;;;;;37.67;35.00;;;;;14.18;38.05;102217.97;6258406;22;45327;-82
2022/03/23 07:48:11;;;;;;;;;37.00;33.00;;;;;14.20;37.59;102219.81;6286896;22;45330;-82
2022/03/23 07:50:37;;;;;;;;;36.00;35.00;;;;;14.33;37.78;102230.78;6258039;22;47710;-82
2022/03/23 07:53:02;;;;;;;;;42.67;36.33;;;;;14.36;37.26;102215.72;6257785;22;45753;-82
2022/03/23 07:55:28;;;;;;;;;37.00;35.00;;;;;14.48;37.06;102223.13;6261015;22;45266;-82
2022/03/23 07:57:53;;;;;;;;;51.33;40.33;;;;;14.52;37.15;102221.38;6263242;22;45288;-83
2022/03/23 08:00:20;;;;;;;;;43.00;37.00;;;;;14.53;36.81;102224.09;6284046;22;45816;-82
2022/03/23 08:02:46;;;;;;;;;40.67;36.33;;;;;14.63;37.11;102229.69;6284630;22;45389;-82
2022/03/23 08:05:11;;;;;;;;;36.67;35.33;;;;;14.75;37.11;102229.97;6257386;22;45392;-82
2022/03/23 08:07:37;;;;;;;;;39.67;33.33;;;;;14.75;36.69;102217.47;6282664;22;45365;-82
2022/03/23 08:10:43;;;;;;;;;40.33;38.00;;;;;15.14;35.57;102245.91;6255650;22;46776;-83
2022/03/23 08:13:33;;;;;;;;;35.67;33.00;;;;;14.96;35.13;102238.41;6255963;22;46116;-82
2022/03/23 08:15:58;;;;;;;;;38.33;34.33;;;;;15.00;34.87;102245.63;6282356;22;45235;-83
2022/03/23 08:18:23;;;;;;;;;35.67;34.33;;;;;14.99;35.38;102245.63;6255397;22;45362;-82
2022/03/23 08:20:50;;;;;;;;;34.00;32.33;;;;;14.91;35.13;102210.63;6254967;22;45244;-82
2022/03/23 08:23:16;;;;;;;;;34.67;34.00;;;;;15.20;35.01;102237.09;6285425;22;45260;-82
2022/03/23 08:25:56;;;;;;;;;43.33;37.33;;;;;15.26;34.95;102236.31;6283315;22;45702;-83
2022/03/23 08:28:22;;;;;;;;;38.00;36.00;;;;;15.10;35.13;102224.38;6257292;22;45720;-82
2022/03/23 08:30:47;;;;;;;;;36.00;33.33;;;;;15.08;34.99;102218.09;6257153;22;46932;-82
2022/03/23 08:33:13;;;;;;;;;42.00;37.00;;;;;15.15;34.96;102230.75;6254311;22;44918;-81
2022/03/23 08:35:39;;;;;;;;;35.33;33.00;;;;;15.25;35.49;102243.44;6284460;22;45326;-82
2022/03/23 08:38:08;;;;;;;;;41.00;36.67;;;;;15.53;35.14;102239.50;6257877;22;45350;-80
2022/03/23 08:41:08;;;;;;;;;31.00;28.00;;;;;15.74;34.29;102248.81;6259644;22;47313;-82
2022/03/23 08:43:53;;;;;;;;;32.67;31.33;;;;;15.77;33.32;102251.53;6261268;22;45262;-81
2022/03/23 08:46:55;;;;;;;;;32.67;31.00;;;;;15.83;34.00;102253.44;6267913;22;44681;-82
2022/03/23 08:50:22;;;;;;;;;34.00;33.00;;;;;15.90;34.28;102249.97;6288517;22;45446;-84
2022/03/23 08:53:44;;;;;;;;;34.67;31.67;;;;;16.12;33.77;102253.91;6193370;22;45047;-84
2022/03/23 08:56:11;;;;;;;;;26.33;26.00;;;;;15.82;32.96;102209.59;6103396;23;45365;-83
2022/03/23 08:58:47;;;;;;;;;34.33;32.67;;;;;15.98;33.05;102216.13;6102940;23;45444;-81
2022/03/23 09:01:25;;;;;;;;;30.00;27.33;;;;;16.13;33.46;102237.81;6103662;23;44782;-83
2022/03/23 09:03:53;;;;;;;;;30.00;26.67;;;;;16.20;32.35;102217.34;6103328;23;45349;-84
2022/03/23 09:06:21;;;;;;;;;21.67;20.33;;;;;16.36;32.45;102262.31;6106646;23;45881;-82
2022/03/23 09:08:46;;;;;;;;;28.67;25.67;;;;;16.23;32.12;102228.09;6079226;23;45223;-82
2022/03/23 09:11:12;;;;;;;;;29.67;27.67;;;;;16.40;31.97;102241.75;6105047;23;45455;-83
2022/03/23 09:13:57;;;;;;;;;36.33;30.00;;;;;16.51;31.88;102232.09;6108612;23;45346;-82
2022/03/23 09:16:27;;;;;;;;;30.00;27.67;;;;;16.54;31.51;102231.22;6107858;23;45302;-82
2022/03/23 09:19:20;;;;;;;;;23.67;23.67;;;;;16.82;32.24;102245.94;6110423;23;45467;-85
2022/03/23 09:22:21;;;;;;;;;26.33;22.33;;;;;16.88;30.71;102245.13;6103399;23;45360;-81
2022/03/23 09:25:04;;;;;;;;;29.00;26.33;;;;;16.57;31.61;102197.25;6102448;23;46828;-84
2022/03/23 09:27:42;;;;;;;;;28.33;27.00;;;;;16.95;31.39;102249.69;6101582;23;45495;-83
2022/03/23 09:30:13;;;;;;;;;27.00;26.67;;;;;16.78;30.33;102211.81;6160834;23;45395;-82
2022/03/23 09:33:13;;;;;;;;;27.33;27.33;;;;;16.89;30.91;102230.81;6266417;22;45356;-85
2022/03/23 09:35:44;;;;;;;;;33.67;27.33;;;;;16.93;30.81;102225.47;6258950;22;45472;-84
2022/03/23 09:38:19;;;;;;;;;31.00;29.00;;;;;16.77;30.47;102210.94;6286504;22;45484;-84
2022/03/23 09:41:12;;;;;;;;;33.33;31.00;;;;;17.20;31.85;102242.78;6261846;22;44764;-84
2022/03/23 09:44:11;;;;;;;;;36.67;29.33;;;;;17.20;30.64;102237.41;6291521;22;45843;-86
2022/03/23 09:46:41;;;;;;;;;28.33;28.33;;;;;17.07;31.09;102220.28;6290113;22;46043;-84
2022/03/23 09:49:45;;;;;;;;;30.00;28.67;;;;;17.33;29.29;102250.13;6292056;22;45524;-84
2022/03/23 09:52:16;;;;;;;;;33.00;29.33;;;;;17.12;29.95;102241.81;6287775;22;45310;-82
2022/03/23 09:54:53;;;;;;;;;33.67;30.67;;;;;17.34;30.47;102251.91;6260897;22;45425;-82
2022/03/23 09:57:47;;;;;;;;;27.00;26.67;;;;;17.26;29.37;102232.09;6264049;22;46913;-83
2022/03/23 10:00:35;;;;;;;;;32.00;27.00;;;;;17.47;28.51;102246.66;6262436;22;45543;-84
2022/03/23 10:03:29;;;;;;;;;30.33;28.33;;;;;17.54;29.70;102243.16;6287862;22;45275;-84
2022/03/23 10:06:26;;;;;;;;;24.67;20.33;;;;;17.64;27.67;102241.44;6242962;22;45398;-83
2022/03/23 10:09:26;;;;;;;;;21.33;20.67;;;;;17.63;27.09;102248.59;6264043;22;45605;-82
2022/03/23 10:12:29;;;;;;;;;22.00;22.00;;;;;17.62;27.31;102244.13;6259900;22;45554;-83
2022/03/23 10:15:40;;;;;;;;;22.33;21.00;;;;;17.73;28.67;102237.03;6258167;22;44891;-83
2022/03/23 10:18:43;;;;;;;;;29.00;25.67;;;;;17.68;27.27;102237.88;6290943;22;45352;-84
2022/03/23 10:25:59;;;;;;;;;23.67;21.00;;;;;17.58;28.26;102202.81;6279447;22;45427;-84
2022/03/23 10:28:33;;;;;;;;;23.67;22.00;;;;;17.65;26.73;102197.50;6177941;23;45875;-85
2022/03/23 10:31:29;;;;;;;;;19.00;17.00;;;;;17.91;27.13;102238.09;6168282;23;44971;-84
2022/03/23 10:34:10;;;;;;;;;18.33;18.33;;;;;17.78;28.03;102213.75;6115916;23;46612;-85
2022/03/23 10:36:56;;;;;;;;;22.67;22.67;;;;;17.96;26.65;102242.63;6190385;23;45767;-84
2022/03/23 10:39:46;;;;;;;;;24.00;21.00;;;;;17.96;26.40;102222.91;6165944;23;46039;-85
2022/03/23 10:42:26;;;;;;;;;22.67;21.33;;;;;17.77;26.30;102203.91;6192763;22;45665;-84
2022/03/23 10:46:14;;;;;;;;;21.00;20.00;;;;;17.90;26.71;102198.63;6165150;23;45885;-85
2022/03/23 10:49:18;;;;;;;;;;;;;;;;;;;;;
2022/03/23 10:51:56;;;;;;;;;28.00;26.33;;;;;18.04;26.84;102196.00;6096569;23;67933;-85
2022/03/23 10:54:26;;;;;;;;;26.00;24.33;;;;;18.15;27.07;102214.03;6107169;23;45848;-83
2022/03/23 10:56:52;;;;;;;;;25.00;25.00;;;;;17.93;27.09;102204.03;6103419;23;46936;-83
2022/03/23 10:59:26;;;;;;;;;28.33;25.33;;;;;18.20;27.12;102219.47;6105647;23;45761;-81
2022/03/23 11:02:11;;;;;;;;;24.33;23.00;;;;;18.31;27.50;102220.41;6167041;23;45413;-82
2022/03/23 11:04:52;;;;;;;;;25.00;22.67;;;;;18.35;25.88;102218.66;6196665;23;44780;-82
2022/03/23 11:07:48;;;;;;;;;29.67;26.00;;;;;18.37;26.67;102216.88;6169947;23;45480;-84
2022/03/23 11:16:24;;;;;;;;;;;;;;;;;;;;;
2022/03/23 11:19:59;;;;;;;;;27.33;24.33;;;;;18.56;26.25;102208.00;6254830;22;74334;-83
2022/03/23 11:26:31;;;;;;;;;;;;;;;;;;;;;
2022/03/23 11:29:30;;;;;;;;;25.33;24.67;;;;;18.43;25.85;102168.41;6167704;23;44821;-84
2022/03/23 11:31:57;;;;;;;;;29.33;28.67;;;;;18.41;24.87;102175.59;6163336;23;46343;-84
2022/03/23 11:38:12;;;;;;;;;33.00;29.00;;;;;18.86;25.97;102195.53;6022421;23;45420;-82
2022/03/23 11:40:44;;;;;;;;;25.33;25.00;;;;;18.85;25.05;102177.56;6022954;23;45308;-84
2022/03/23 11:44:14;;;;;;;;;;;;;;;;;;;;;
2022/03/23 11:46:52;;;;;;;;;35.00;29.33;;;;;18.82;24.62;102145.22;5877267;24;71943;-86
2022/03/23 11:49:25;;;;;;;;;30.00;29.33;;;;;18.89;25.54;102140.75;5878221;24;45281;-84
2022/03/23 12:02:45;;;;;;;;;27.67;26.67;;;;;19.34;24.89;102158.75;5879137;24;45416;-85
2022/03/23 12:05:33;;;;;;;;;28.67;26.00;;;;;19.06;24.69;102111.09;5915557;23;45715;-85
2022/03/23 12:08:16;;;;;;;;;29.00;28.00;;;;;19.33;25.70;102140.78;6016078;23;45573;-84
2022/03/23 12:11:31;;;;;;;;;;;;;;;;;;;;;
2022/03/23 12:18:28;;;;;;;;;31.00;28.00;;;;;19.53;25.62;102118.28;6047274;23;44947;-84
2022/03/23 12:25:37;;;;;;;;;;;;;;;;;;;;;
2022/03/23 12:29:18;;;;;;;;;29.33;28.00;;;;;19.46;23.88;102114.69;6051041;23;69130;-85
2022/03/23 12:31:44;;;;;;;;;27.00;25.67;;;;;19.16;24.59;102085.94;6003262;23;45747;-81
2022/03/23 12:34:56;;;;;;;;;30.33;27.67;;;;;19.50;25.04;102096.72;6014923;23;46278;-87
2022/03/23 12:41:11;;;;;;;;;28.67;27.00;;;;;19.59;23.50;102092.22;5847589;24;45912;-84
2022/03/23 12:43:42;;;;;;;;;21.00;19.67;;;;;19.48;23.87;102060.75;5848498;24;45425;-82
2022/03/23 12:46:28;;;;;;;;;27.67;23.00;;;;;19.67;22.84;102075.97;5870594;24;47069;-82